sensor_id;sensor_type;location;lat;lon;timestamp;pressure;altitude;pressure_sealevel;temperature;humidity
12763;BME280;6445;52.490;13.378;2022-12-07T00:01:09;107497.38;;;-146.10;100.00
12763;BME280;6445;52.490;13.378;2022-12-07T00:03:36;107497.38;;;-146.10;100.00
12763;BME280;6445;52.490;13.378;2022-12-07T00:06:02;107237.78;;;-146.10;100.00
12763;BME280;6445;52.490;13.378;2022-12-07T00:08:28;106978.16;;;-146.10;100.00
12763;BME280;6445;52.490;13.378;2022-12-07T00:10:54;107497.38;;;-146.10;100.00
12763;BME280;6445;52.490;13.378;2022-12-07T00:13:20;107237.78;;;-146.10;100.00
12763;BME280;6445;52.490;13.378;2022-12-07T00:15:45;106199.44;;;-146.10;100.00
12763;BME280;6445;52.490;13.378;2022-12-07T00:18:10;104383.03;;;-146.10;100.00
12763;BME280;6445;52.490;13.378;2022-12-07T00:20:35;102826.75;;;-146.10;100.00
12763;BME280;6445;52.490;13.378;2022-12-07T00:23:01;102567.41;;;-146.10;100.00
12763;BME280;6445;52.490;13.378;2022-12-07T00:25:26;103086.06;;;-146.10;100.00
12763;BME280;6445;52.490;13.378;2022-12-07T00:27:54;103864.19;;;-146.10;100.00
12763;BME280;6445;52.490;13.378;2022-12-07T00:30:22;103864.19;;;-146.10;100.00
12763;BME280;6445;52.490;13.378;2022-12-07T00:32:47;103604.81;;;-146.10;100.00
12763;BME280;6445;52.490;13.378;2022-12-07T00:35:13;102308.09;;;-146.10;100.00
12763;BME280;6445;52.490;13.378;2022-12-07T00:37:39;102826.75;;;-146.10;100.00
12763;BME280;6445;52.490;13.378;2022-12-07T00:40:05;103086.06;;;-146.10;100.00
12763;BME280;6445;52.490;13.378;2022-12-07T00:42:30;102308.09;;;-146.10;100.00
12763;BME280;6445;52.490;13.378;2022-12-07T00:44:55;101271.06;;;-146.10;100.00
12763;BME280;6445;52.490;13.378;2022-12-07T00:47:20;100752.63;;;-146.10;100.00
12763;BME280;6445;52.490;13.378;2022-12-07T00:49:46;101271.06;;;-146.10;100.00
12763;BME280;6445;52.490;13.378;2022-12-07T00:52:11;100752.63;;;-146.10;100.00
12763;BME280;6445;52.490;13.378;2022-12-07T00:54:36;102048.81;;;-146.10;100.00
12763;BME280;6445;52.490;13.378;2022-12-07T00:57:01;99197.72;;;-146.10;100.00
12763;BME280;6445;52.490;13.378;2022-12-07T00:59:27;100234.25;;;-146.10;100.00
12763;BME280;6445;52.490;13.378;2022-12-07T01:01:52;101271.06;;;-146.10;100.00
12763;BME280;6445;52.490;13.378;2022-12-07T01:04:17;101011.81;;;-146.10;100.00
12763;BME280;6445;52.490;13.378;2022-12-07T01:06:42;100752.63;;;-146.10;100.00
12763;BME280;6445;52.490;13.378;2022-12-07T01:09:08;98420.50;;;-146.10;99.13
12763;BME280;6445;52.490;13.378;2022-12-07T01:11:33;97384.44;;;-146.10;99.26
12763;BME280;6445;52.490;13.378;2022-12-07T01:13:59;97643.44;;;-146.10;99.24
12763;BME280;6445;52.490;13.378;2022-12-07T01:16:27;97384.44;;;-146.10;98.76
12763;BME280;6445;52.490;13.378;2022-12-07T01:18:54;96607.56;;;-146.10;98.61
12763;BME280;6445;52.490;13.378;2022-12-07T01:21:25;96089.72;;;-146.10;98.39
12763;BME280;6445;52.490;13.378;2022-12-07T01:23:51;97125.47;;;-146.10;98.39
12763;BME280;6445;52.490;13.378;2022-12-07T01:26:19;97125.47;;;-146.10;97.95
12763;BME280;6445;52.490;13.378;2022-12-07T01:28:46;95830.84;;;-146.10;97.67
12763;BME280;6445;52.490;13.378;2022-12-07T01:31:13;96866.50;;;-146.10;98.07
12763;BME280;6445;52.490;13.378;2022-12-07T01:33:43;96866.50;;;-146.10;98.11
12763;BME280;6445;52.490;13.378;2022-12-07T01:36:24;95830.84;;;-146.10;97.63
12763;BME280;6445;52.490;13.378;2022-12-07T01:38:51;96866.50;;;-146.10;98.12
12763;BME280;6445;52.490;13.378;2022-12-07T01:41:18;96348.63;;;-146.10;97.68
12763;BME280;6445;52.490;13.378;2022-12-07T01:44:19;97125.47;;;-146.10;97.99
12763;BME280;6445;52.490;13.378;2022-12-07T01:49:20;94019.06;;;-146.10;96.94
12763;BME280;6445;52.490;13.378;2022-12-07T01:51:49;93242.81;;;-146.10;96.29
12763;BME280;6445;52.490;13.378;2022-12-07T01:54:16;91949.44;;;-146.10;96.08
12763;BME280;6445;52.490;13.378;2022-12-07T01:56:48;91690.81;;;-146.10;95.75
12763;BME280;6445;52.490;13.378;2022-12-07T01:59:15;92725.41;;;-146.10;96.38
12763;BME280;6445;52.490;13.378;2022-12-07T02:01:41;94536.63;;;-146.10;97.00
12763;BME280;6445;52.490;13.378;2022-12-07T02:04:07;94019.06;;;-146.10;96.72
12763;BME280;6445;52.490;13.378;2022-12-07T02:06:33;94536.63;;;-146.10;96.61
12763;BME280;6445;52.490;13.378;2022-12-07T02:09:00;91690.81;;;-146.10;95.94
12763;BME280;6445;52.490;13.378;2022-12-07T02:11:25;90915.03;;;-146.10;95.81
12763;BME280;6445;52.490;13.378;2022-12-07T02:13:51;91690.81;;;-146.10;95.75
12763;BME280;6445;52.490;13.378;2022-12-07T02:19:39;93242.81;;;-146.10;96.07
12763;BME280;6445;52.490;13.378;2022-12-07T02:24:54;96089.72;;;-146.10;97.44
12763;BME280;6445;52.490;13.378;2022-12-07T02:27:45;97902.44;;;-146.10;98.35
12763;BME280;6445;52.490;13.378;2022-12-07T02:30:14;99197.72;;;-146.10;98.67
12763;BME280;6445;52.490;13.378;2022-12-07T02:33:07;99456.84;;;-146.10;98.39
12763;BME280;6445;52.490;13.378;2022-12-07T02:35:40;99456.84;;;-146.10;98.37
12763;BME280;6445;52.490;13.378;2022-12-07T02:38:18;99715.97;;;-146.10;98.36
12763;BME280;6445;52.490;13.378;2022-12-07T02:43:25;99456.84;;;-146.10;98.43
12763;BME280;6445;52.490;13.378;2022-12-07T02:45:52;99456.84;;;-146.10;98.90
12763;BME280;6445;52.490;13.378;2022-12-07T02:48:19;99715.97;;;-146.10;98.61
12763;BME280;6445;52.490;13.378;2022-12-07T02:50:50;99975.09;;;-146.10;98.77
12763;BME280;6445;52.490;13.378;2022-12-07T02:56:06;99197.72;;;-146.10;98.83
12763;BME280;6445;52.490;13.378;2022-12-07T03:01:33;100493.44;;;-146.10;99.20
12763;BME280;6445;52.490;13.378;2022-12-07T03:07:05;102048.81;;;-146.10;99.52
12763;BME280;6445;52.490;13.378;2022-12-07T03:09:36;101530.28;;;-146.10;99.60
12763;BME280;6445;52.490;13.378;2022-12-07T03:12:10;101789.53;;;-146.10;100.00
12763;BME280;6445;52.490;13.378;2022-12-07T03:14:41;102308.09;;;-146.10;99.88
12763;BME280;6445;52.490;13.378;2022-12-07T03:17:14;102308.09;;;-146.10;99.99
12763;BME280;6445;52.490;13.378;2022-12-07T03:19:42;103086.06;;;-146.10;100.00
12763;BME280;6445;52.490;13.378;2022-12-07T03:22:11;103604.81;;;-146.10;100.00
12763;BME280;6445;52.490;13.378;2022-12-07T03:24:43;104123.59;;;-146.10;100.00
12763;BME280;6445;52.490;13.378;2022-12-07T03:27:31;103604.81;;;-146.10;100.00
12763;BME280;6445;52.490;13.378;2022-12-07T03:30:02;103604.81;;;-146.10;100.00
12763;BME280;6445;52.490;13.378;2022-12-07T03:32:43;103086.06;;;-146.10;100.00
12763;BME280;6445;52.490;13.378;2022-12-07T03:35:24;103604.81;;;-146.10;100.00
12763;BME280;6445;52.490;13.378;2022-12-07T03:38:02;104901.91;;;-146.10;100.00
12763;BME280;6445;52.490;13.378;2022-12-07T03:40:33;104642.47;;;-146.10;100.00
12763;BME280;6445;52.490;13.378;2022-12-07T03:43:00;104901.91;;;-146.10;100.00
12763;BME280;6445;52.490;13.378;2022-12-07T03:45:38;105680.38;;;-146.10;100.00
12763;BME280;6445;52.490;13.378;2022-12-07T03:48:27;105939.91;;;-146.10;100.00
12763;BME280;6445;52.490;13.378;2022-12-07T03:53:40;104642.47;;;-146.10;100.00
12763;BME280;6445;52.490;13.378;2022-12-07T03:56:09;105680.38;;;-146.10;100.00
12763;BME280;6445;52.490;13.378;2022-12-07T03:58:36;106459.00;;;-146.10;100.00
12763;BME280;6445;52.490;13.378;2022-12-07T04:01:02;106459.00;;;-146.10;100.00
12763;BME280;6445;52.490;13.378;2022-12-07T04:03:27;106459.00;;;-146.10;100.00
12763;BME280;6445;52.490;13.378;2022-12-07T04:05:53;106978.16;;;-146.10;100.00
12763;BME280;6445;52.490;13.378;2022-12-07T04:08:19;107757.03;;;-146.10;100.00
12763;BME280;6445;52.490;13.378;2022-12-07T04:10:44;108536.03;;;-146.10;100.00
12763;BME280;6445;52.490;13.378;2022-12-07T04:13:09;109055.47;;;-146.10;100.00
12763;BME280;6445;52.490;13.378;2022-12-07T04:15:35;109574.94;;;-146.10;100.00
12763;BME280;6445;52.490;13.378;2022-12-07T04:18:00;109574.94;;;-146.10;100.00
12763;BME280;6445;52.490;13.378;2022-12-07T04:20:25;110094.50;;;-146.10;100.00
12763;BME280;6445;52.490;13.378;2022-12-07T04:22:50;110354.31;;;-146.10;100.00
12763;BME280;6445;52.490;13.378;2022-12-07T04:25:16;110614.13;;;-146.10;100.00
12763;BME280;6445;52.490;13.378;2022-12-07T04:27:41;111133.81;;;-146.10;100.00
12763;BME280;6445;52.490;13.378;2022-12-07T04:30:07;111653.59;;;-146.10;100.00
12763;BME280;6445;52.490;13.378;2022-12-07T04:32:32;111913.50;;;-146.10;100.00
12763;BME280;6445;52.490;13.378;2022-12-07T04:34:57;112173.41;;;-146.10;100.00
12763;BME280;6445;52.490;13.378;2022-12-07T04:37:23;112344.00;;;-146.10;100.00
12763;BME280;6445;52.490;13.378;2022-12-07T04:39:48;111795.72;;;-146.10;100.00
12763;BME280;6445;52.490;13.378;2022-12-07T04:42:14;111243.47;;;-146.10;100.00
12763;BME280;6445;52.490;13.378;2022-12-07T04:44:39;110620.22;;;-146.10;100.00
12763;BME280;6445;52.490;13.378;2022-12-07T04:47:04;109824.56;;;-146.10;100.00
12763;BME280;6445;52.490;13.378;2022-12-07T04:49:30;109142.72;;;-146.10;100.00
12763;BME280;6445;52.490;13.378;2022-12-07T04:51:55;108404.16;;;-146.10;100.00
12763;BME280;6445;52.490;13.378;2022-12-07T04:54:21;107803.69;;;-146.10;100.00
12763;BME280;6445;52.490;13.378;2022-12-07T04:56:46;107337.16;;;-146.10;100.00
12763;BME280;6445;52.490;13.378;2022-12-07T04:59:12;106771.31;;;-146.10;100.00
12763;BME280;6445;52.490;13.378;2022-12-07T05:01:38;106124.41;;;-146.10;100.00
12763;BME280;6445;52.490;13.378;2022-12-07T05:04:03;105929.78;;;-146.10;100.00
12763;BME280;6445;52.490;13.378;2022-12-07T05:06:29;105360.06;;;-146.10;100.00
12763;BME280;6445;52.490;13.378;2022-12-07T05:08:54;104672.88;;;-146.10;100.00
12763;BME280;6445;52.490;13.378;2022-12-07T05:11:19;104407.34;;;-146.10;100.00
12763;BME280;6445;52.490;13.378;2022-12-07T05:14:14;103809.47;;;-146.10;100.00
12763;BME280;6445;52.490;13.378;2022-12-07T05:16:40;103462.97;;;-146.10;100.00
12763;BME280;6445;52.490;13.378;2022-12-07T05:19:06;102903.72;;;-146.10;100.00
12763;BME280;6445;52.490;13.378;2022-12-07T05:21:31;102571.47;;;-146.10;100.00
12763;BME280;6445;52.490;13.378;2022-12-07T05:23:56;102125.78;;;-146.10;100.00
12763;BME280;6445;52.490;13.378;2022-12-07T05:26:22;101690.28;;;-146.10;100.00
12763;BME280;6445;52.490;13.378;2022-12-07T05:28:52;101350.03;;;-146.10;100.00
12763;BME280;6445;52.490;13.378;2022-12-07T05:31:18;101133.34;;;-146.10;100.00
12763;BME280;6445;52.490;13.378;2022-12-07T05:33:43;100529.88;;;-146.10;100.00
12763;BME280;6445;52.490;13.378;2022-12-07T05:36:08;100341.56;;;-146.10;100.00
12763;BME280;6445;52.490;13.378;2022-12-07T05:38:33;99981.16;;;-146.10;100.00
12763;BME280;6445;52.490;13.378;2022-12-07T05:41:03;99402.19;;;-146.10;100.00
12763;BME280;6445;52.490;13.378;2022-12-07T05:43:29;98843.50;;;-146.10;100.00
12763;BME280;6445;52.490;13.378;2022-12-07T05:45:54;98722.06;;;-146.10;100.00
12763;BME280;6445;52.490;13.378;2022-12-07T05:48:20;98548.00;;;-146.10;100.00
12763;BME280;6445;52.490;13.378;2022-12-07T05:50:47;97904.47;;;-146.10;100.00
12763;BME280;6445;52.490;13.378;2022-12-07T05:53:13;97746.63;;;-146.10;100.00
12763;BME280;6445;52.490;13.378;2022-12-07T05:55:38;97503.81;;;-146.10;100.00
12763;BME280;6445;52.490;13.378;2022-12-07T05:58:03;96973.72;;;-146.10;100.00
12763;BME280;6445;52.490;13.378;2022-12-07T06:00:47;97032.41;;;-146.10;100.00
12763;BME280;6445;52.490;13.378;2022-12-07T06:03:12;96995.97;;;-146.10;100.00
12763;BME280;6445;52.490;13.378;2022-12-07T06:05:37;97082.97;;;-146.10;100.00
12763;BME280;6445;52.490;13.378;2022-12-07T06:08:03;96852.34;;;-146.10;100.00
12763;BME280;6445;52.490;13.378;2022-12-07T06:10:28;96769.41;;;-146.10;100.00
12763;BME280;6445;52.490;13.378;2022-12-07T06:12:53;96654.09;;;-146.10;100.00
12763;BME280;6445;52.490;13.378;2022-12-07T06:15:19;96710.72;;;-146.10;100.00
12763;BME280;6445;52.490;13.378;2022-12-07T06:17:44;96101.84;;;-146.10;100.00
12763;BME280;6445;52.490;13.378;2022-12-07T06:20:09;96334.47;;;-146.10;100.00
12763;BME280;6445;52.490;13.378;2022-12-07T06:22:35;96099.84;;;-146.10;100.00
12763;BME280;6445;52.490;13.378;2022-12-07T06:25:00;96391.09;;;-146.10;100.00
12763;BME280;6445;52.490;13.378;2022-12-07T06:27:26;96451.78;;;-146.10;100.00
12763;BME280;6445;52.490;13.378;2022-12-07T06:29:51;96381.00;;;-146.10;100.00
12763;BME280;6445;52.490;13.378;2022-12-07T06:32:16;96381.00;;;-146.10;100.00
12763;BME280;6445;52.490;13.378;2022-12-07T06:34:42;96320.31;;;-146.10;100.00
12763;BME280;6445;52.490;13.378;2022-12-07T06:37:07;96439.66;;;-146.10;100.00
12763;BME280;6445;52.490;13.378;2022-12-07T06:39:32;96184.78;;;-146.10;100.00
12763;BME280;6445;52.490;13.378;2022-12-07T06:41:58;95940.06;;;-146.10;100.00
12763;BME280;6445;52.490;13.378;2022-12-07T06:44:24;95561.84;;;-146.10;100.00
12763;BME280;6445;52.490;13.378;2022-12-07T06:46:50;95149.28;;;-146.10;100.00
12763;BME280;6445;52.490;13.378;2022-12-07T06:49:16;95038.06;;;-146.10;100.00
12763;BME280;6445;52.490;13.378;2022-12-07T06:51:42;94930.91;;;-146.10;100.00
12763;BME280;6445;52.490;13.378;2022-12-07T06:54:09;94850.03;;;-146.10;100.00
12763;BME280;6445;52.490;13.378;2022-12-07T06:56:34;95030.00;;;-146.10;100.00
12763;BME280;6445;52.490;13.378;2022-12-07T06:58:59;94769.13;;;-146.10;100.00
12763;BME280;6445;52.490;13.378;2022-12-07T07:01:25;94882.38;;;-146.10;100.00
12763;BME280;6445;52.490;13.378;2022-12-07T07:03:50;94696.34;;;-146.10;100.00
12763;BME280;6445;52.490;13.378;2022-12-07T07:06:15;94930.91;;;-146.10;100.00
12763;BME280;6445;52.490;13.378;2022-12-07T07:08:41;94878.34;;;-146.10;100.00
12763;BME280;6445;52.490;13.378;2022-12-07T07:11:07;95254.44;;;-146.10;100.00
12763;BME280;6445;52.490;13.378;2022-12-07T07:13:33;95307.03;;;-146.10;100.00
12763;BME280;6445;52.490;13.378;2022-12-07T07:15:58;95626.56;;;-146.10;100.00
12763;BME280;6445;52.490;13.378;2022-12-07T07:18:24;96233.34;;;-146.10;100.00
12763;BME280;6445;52.490;13.378;2022-12-07T07:20:51;96716.78;;;-146.10;100.00
12763;BME280;6445;52.490;13.378;2022-12-07T07:23:17;97036.44;;;-146.10;100.00
12763;BME280;6445;52.490;13.378;2022-12-07T07:25:42;97639.38;;;-146.10;100.00
12763;BME280;6445;52.490;13.378;2022-12-07T07:28:08;98100.75;;;-146.10;100.00
12763;BME280;6445;52.490;13.378;2022-12-07T07:30:33;98572.28;;;-146.10;100.00
12763;BME280;6445;52.490;13.378;2022-12-07T07:32:59;100050.00;;;-146.10;100.00
12763;BME280;6445;52.490;13.378;2022-12-07T07:35:26;101070.56;;;-146.10;100.00
12763;BME280;6445;52.490;13.378;2022-12-07T07:37:51;102267.59;;;-146.10;100.00
12763;BME280;6445;52.490;13.378;2022-12-07T07:40:17;103564.28;;;-146.10;100.00
12763;BME280;6445;52.490;13.378;2022-12-07T07:42:42;104776.25;;;-146.10;100.00
12763;BME280;6445;52.490;13.378;2022-12-07T07:45:08;105773.66;;;-146.10;100.00
12763;BME280;6445;52.490;13.378;2022-12-07T07:47:33;106404.25;;;-146.10;100.00
12763;BME280;6445;52.490;13.378;2022-12-07T07:49:58;107053.19;;;-146.10;100.00
12763;BME280;6445;52.490;13.378;2022-12-07T07:52:24;107846.28;;;-146.10;100.00
12763;BME280;6445;52.490;13.378;2022-12-07T07:54:49;108410.25;;;-146.10;100.00
12763;BME280;6445;52.490;13.378;2022-12-07T07:57:16;108854.59;;;-146.10;100.00
12763;BME280;6445;52.490;13.378;2022-12-07T07:59:42;107757.03;;;-146.10;100.00
12763;BME280;6445;52.490;13.378;2022-12-07T08:02:13;106718.56;;;-146.10;100.00
12763;BME280;6445;52.490;13.378;2022-12-07T08:04:39;105939.91;;;-146.10;100.00
12763;BME280;6445;52.490;13.378;2022-12-07T08:07:04;104123.59;;;-146.10;100.00
12763;BME280;6445;52.490;13.378;2022-12-07T08:09:30;103864.19;;;-146.10;100.00
12763;BME280;6445;52.490;13.378;2022-12-07T08:11:55;104383.03;;;-146.10;100.00
12763;BME280;6445;52.490;13.378;2022-12-07T08:14:20;105420.88;;;-146.10;100.00
12763;BME280;6445;52.490;13.378;2022-12-07T08:16:45;105680.38;;;-146.10;100.00
12763;BME280;6445;52.490;13.378;2022-12-07T08:19:11;103345.44;;;-146.10;100.00
12763;BME280;6445;52.490;13.378;2022-12-07T08:21:37;103604.81;;;-146.10;100.00
12763;BME280;6445;52.490;13.378;2022-12-07T08:24:02;103864.19;;;-146.10;100.00
12763;BME280;6445;52.490;13.378;2022-12-07T08:26:27;104383.03;;;-146.10;100.00
12763;BME280;6445;52.490;13.378;2022-12-07T08:28:53;102567.41;;;-146.10;100.00
12763;BME280;6445;52.490;13.378;2022-12-07T08:31:18;99975.09;;;-146.10;99.97
12763;BME280;6445;52.490;13.378;2022-12-07T08:33:47;99715.97;;;-146.10;99.86
12763;BME280;6445;52.490;13.378;2022-12-07T08:36:13;94277.81;;;-146.10;97.75
12763;BME280;6445;52.490;13.378;2022-12-07T08:38:39;94277.81;;;-146.10;97.41
12763;BME280;6445;52.490;13.378;2022-12-07T08:41:06;94019.06;;;-146.10;97.39
12763;BME280;6445;52.490;13.378;2022-12-07T08:43:32;88071.75;;;-146.10;94.69
12763;BME280;6445;52.490;13.378;2022-12-07T08:46:11;79209.56;;;-146.10;92.82
12763;BME280;6445;52.490;13.378;2022-12-07T08:48:42;77723.38;;;-146.10;92.45
12763;BME280;6445;52.490;13.378;2022-12-07T08:51:09;70967.88;;;-146.10;90.44
12763;BME280;6445;52.490;13.378;2022-12-07T08:53:37;66674.69;;;-146.10;89.42
12763;BME280;6445;52.490;13.378;2022-12-07T08:56:04;63513.50;;;-146.10;88.86
12763;BME280;6445;52.490;13.378;2022-12-07T08:58:30;63262.72;;;-146.10;88.59
12763;BME280;6445;52.490;13.378;2022-12-07T09:00:55;58619.13;;;-146.10;86.73
12763;BME280;6445;52.490;13.378;2022-12-07T09:03:20;58046.06;;;-146.10;86.54
12763;BME280;6445;52.490;13.378;2022-12-07T09:05:46;58088.16;;;-146.10;87.04
12763;BME280;6445;52.490;13.378;2022-12-07T09:08:11;58136.22;;;-146.10;86.69
12763;BME280;6445;52.490;13.378;2022-12-07T09:10:37;57977.94;;;-146.10;86.79
12763;BME280;6445;52.490;13.378;2022-12-07T09:13:02;56998.34;;;-146.10;86.03
12763;BME280;6445;52.490;13.378;2022-12-07T09:15:28;55490.38;;;-146.10;84.84
12763;BME280;6445;52.490;13.378;2022-12-07T09:17:54;53918.91;;;-146.10;82.74
12763;BME280;6445;52.490;13.378;2022-12-07T09:20:19;53944.94;;;-146.10;83.51
12763;BME280;6445;52.490;13.378;2022-12-07T09:22:44;53956.94;;;-146.10;83.23
12763;BME280;6445;52.490;13.378;2022-12-07T09:25:10;54355.25;;;-146.10;83.84
12763;BME280;6445;52.490;13.378;2022-12-07T09:27:35;54449.34;;;-146.10;84.40
12763;BME280;6445;52.490;13.378;2022-12-07T09:30:00;54429.31;;;-146.10;83.86
12763;BME280;6445;52.490;13.378;2022-12-07T09:32:26;54687.53;;;-146.10;84.13
12763;BME280;6445;52.490;13.378;2022-12-07T09:34:51;54157.09;;;-146.10;83.78
12763;BME280;6445;52.490;13.378;2022-12-07T09:37:16;54129.06;;;-146.10;83.55
12763;BME280;6445;52.490;13.378;2022-12-07T09:39:41;54161.09;;;-146.10;83.70
12763;BME280;6445;52.490;13.378;2022-12-07T09:42:07;54553.41;;;-146.10;84.13
12763;BME280;6445;52.490;13.378;2022-12-07T09:44:33;54611.47;;;-146.10;84.70
12763;BME280;6445;52.490;13.378;2022-12-07T09:47:00;54589.44;;;-146.10;84.37
12763;BME280;6445;52.490;13.378;2022-12-07T09:49:28;54121.06;;;-146.10;83.92
12763;BME280;6445;52.490;13.378;2022-12-07T09:54:30;53648.72;;;-146.10;82.76
12763;BME280;6445;52.490;13.378;2022-12-07T09:56:55;54077.03;;;-146.10;84.14
12763;BME280;6445;52.490;13.378;2022-12-07T09:59:21;54615.47;;;-146.10;84.45
12763;BME280;6445;52.490;13.378;2022-12-07T10:01:48;55061.91;;;-146.10;84.76
12763;BME280;6445;52.490;13.378;2022-12-07T10:04:17;55176.03;;;-146.10;85.45
12763;BME280;6445;52.490;13.378;2022-12-07T10:06:43;55250.09;;;-146.10;85.17
12763;BME280;6445;52.490;13.378;2022-12-07T10:09:13;55440.31;;;-146.10;85.34
12763;BME280;6445;52.490;13.378;2022-12-07T10:11:58;56201.22;;;-146.10;86.23
12763;BME280;6445;52.490;13.378;2022-12-07T10:14:23;56341.41;;;-146.10;85.86
12763;BME280;6445;52.490;13.378;2022-12-07T10:16:48;55974.94;;;-146.10;85.86
12763;BME280;6445;52.490;13.378;2022-12-07T10:19:27;57398.97;;;-146.10;86.90
12763;BME280;6445;52.490;13.378;2022-12-07T10:22:05;57094.50;;;-146.10;86.65
12763;BME280;6445;52.490;13.378;2022-12-07T10:24:33;58260.47;;;-146.10;87.16
12763;BME280;6445;52.490;13.378;2022-12-07T10:26:59;58096.16;;;-146.10;86.90
12763;BME280;6445;52.490;13.378;2022-12-07T10:29:28;57449.06;;;-146.10;86.32
12763;BME280;6445;52.490;13.378;2022-12-07T10:34:27;55912.88;;;-146.10;85.18
12763;BME280;6445;52.490;13.378;2022-12-07T10:37:07;54657.50;;;-146.10;83.60
12763;BME280;6445;52.490;13.378;2022-12-07T10:42:20;53822.84;;;-146.10;81.99
12763;BME280;6445;52.490;13.378;2022-12-07T10:44:47;53502.63;;;-146.10;82.03
12763;BME280;6445;52.490;13.378;2022-12-07T10:47:25;53614.69;;;-146.10;82.51
12763;BME280;6445;52.490;13.378;2022-12-07T10:50:02;53722.78;;;-146.10;83.27
12763;BME280;6445;52.490;13.378;2022-12-07T10:52:44;54301.19;;;-146.10;83.82
12763;BME280;6445;52.490;13.378;2022-12-07T11:03:45;54675.53;;;-146.10;83.94
12763;BME280;6445;52.490;13.378;2022-12-07T11:06:25;54653.50;;;-146.10;84.07
12763;BME280;6445;52.490;13.378;2022-12-07T11:09:03;54811.66;;;-146.10;84.25
12763;BME280;6445;52.490;13.378;2022-12-07T11:11:45;54961.81;;;-146.10;84.14
12763;BME280;6445;52.490;13.378;2022-12-07T11:14:31;55180.03;;;-146.10;84.82
12763;BME280;6445;52.490;13.378;2022-12-07T11:17:07;55540.44;;;-146.10;84.89
12763;BME280;6445;52.490;13.378;2022-12-07T11:22:43;56253.31;;;-146.10;85.43
12763;BME280;6445;52.490;13.378;2022-12-07T11:25:24;55848.78;;;-146.10;85.49
12763;BME280;6445;52.490;13.378;2022-12-07T11:28:07;56998.34;;;-146.10;85.84
12763;BME280;6445;52.490;13.378;2022-12-07T11:36:14;56035.03;;;-146.10;84.96
12763;BME280;6445;52.490;13.378;2022-12-07T11:38:47;55576.47;;;-146.10;84.96
12763;BME280;6445;52.490;13.378;2022-12-07T11:41:20;55838.78;;;-146.10;85.13
12763;BME280;6445;52.490;13.378;2022-12-07T11:43:54;56547.69;;;-146.10;85.41
12763;BME280;6445;52.490;13.378;2022-12-07T11:46:25;56351.44;;;-146.10;85.25
12763;BME280;6445;52.490;13.378;2022-12-07T11:48:58;56491.63;;;-146.10;85.53
12763;BME280;6445;52.490;13.378;2022-12-07T11:51:27;56273.31;;;-146.10;85.16
12763;BME280;6445;52.490;13.378;2022-12-07T11:53:59;56477.59;;;-146.10;85.55
12763;BME280;6445;52.490;13.378;2022-12-07T11:56:28;57453.06;;;-146.10;86.37
12763;BME280;6445;52.490;13.378;2022-12-07T11:59:08;57935.88;;;-146.10;86.46
12763;BME280;6445;52.490;13.378;2022-12-07T12:06:51;56225.25;;;-146.10;84.84
12763;BME280;6445;52.490;13.378;2022-12-07T12:09:23;56313.38;;;-146.10;85.02
12763;BME280;6445;52.490;13.378;2022-12-07T12:12:04;55872.81;;;-146.10;84.92
12763;BME280;6445;52.490;13.378;2022-12-07T12:22:45;55268.13;;;-146.10;84.21
12763;BME280;6445;52.490;13.378;2022-12-07T12:25:21;55276.13;;;-146.10;84.15
12763;BME280;6445;52.490;13.378;2022-12-07T12:27:48;54987.84;;;-146.10;83.90
12763;BME280;6445;52.490;13.378;2022-12-07T12:30:35;55035.88;;;-146.10;83.76
12763;BME280;6445;52.490;13.378;2022-12-07T12:33:16;54935.78;;;-146.10;84.27
12763;BME280;6445;52.490;13.378;2022-12-07T12:35:44;55324.19;;;-146.10;84.53
12763;BME280;6445;52.490;13.378;2022-12-07T12:38:26;55372.25;;;-146.10;84.43
12763;BME280;6445;52.490;13.378;2022-12-07T12:40:53;55550.44;;;-146.10;84.45
12763;BME280;6445;52.490;13.378;2022-12-07T12:43:44;55738.66;;;-146.10;84.45
12763;BME280;6445;52.490;13.378;2022-12-07T12:49:08;55960.94;;;-146.10;84.80
12763;BME280;6445;52.490;13.378;2022-12-07T12:51:41;56113.13;;;-146.10;85.23
12763;BME280;6445;52.490;13.378;2022-12-07T12:56:50;56237.28;;;-146.10;85.17
12763;BME280;6445;52.490;13.378;2022-12-07T12:59:27;56465.59;;;-146.10;85.14
12763;BME280;6445;52.490;13.378;2022-12-07T13:04:58;56379.47;;;-146.10;85.59
12763;BME280;6445;52.490;13.378;2022-12-07T13:21:01;55942.91;;;-146.10;84.52
12763;BME280;6445;52.490;13.378;2022-12-07T13:23:30;55838.78;;;-146.10;84.38
12763;BME280;6445;52.490;13.378;2022-12-07T13:29:20;56207.25;;;-146.10;85.15
12763;BME280;6445;52.490;13.378;2022-12-07T13:31:47;56461.59;;;-146.10;84.90
12763;BME280;6445;52.490;13.378;2022-12-07T13:34:38;56623.81;;;-146.10;85.49
12763;BME280;6445;52.490;13.378;2022-12-07T13:37:26;56537.69;;;-146.10;85.25
12763;BME280;6445;52.490;13.378;2022-12-07T13:40:00;56415.53;;;-146.10;85.28
12763;BME280;6445;52.490;13.378;2022-12-07T13:42:28;56143.16;;;-146.10;85.14
12763;BME280;6445;52.490;13.378;2022-12-07T13:44:55;56505.63;;;-146.10;85.17
12763;BME280;6445;52.490;13.378;2022-12-07T13:47:34;56920.25;;;-146.10;86.04
12763;BME280;6445;52.490;13.378;2022-12-07T13:50:15;56814.09;;;-146.10;85.38
12763;BME280;6445;52.490;13.378;2022-12-07T13:52:46;56681.88;;;-146.10;85.41
12763;BME280;6445;52.490;13.378;2022-12-07T13:55:15;57066.47;;;-146.10;85.50
12763;BME280;6445;52.490;13.378;2022-12-07T13:57:42;57236.72;;;-146.10;85.98
12763;BME280;6445;52.490;13.378;2022-12-07T14:00:23;57779.59;;;-146.10;85.71
12763;BME280;6445;52.490;13.378;2022-12-07T14:02:58;57845.72;;;-146.10;86.11
12763;BME280;6445;52.490;13.378;2022-12-07T14:05:31;57713.50;;;-146.10;85.85